Time;durP1;ratioP1;P1;durP2;ratioP2;P2;SDS_P1;SDS_P2;PMS_P1;PMS_P2;Temp;Humidity;BMP_temperature;BMP_pressure;BME280_temperature;BME280_humidity;BME280_pressure;Samples;Min_cycle;Max_cycle;Signal;HPM_P1;HPM_P2
2022/10/26 00:00:04;;;;;;;5.43;2.90;;;7.70;99.90;;;;;;4959213;28;20062;-82
2022/10/26 00:02:37;;;;;;;8.50;2.90;;;7.80;99.90;;;;;;4991756;28;20427;-82
2022/10/26 00:05:03;;;;;;;10.57;3.00;;;7.80;99.90;;;;;;4994723;28;20098;-82
2022/10/26 00:07:29;;;;;;;5.28;2.90;;;7.90;99.90;;;;;;4983510;28;20030;-82
2022/10/26 00:09:55;;;;;;;4.32;3.13;;;7.90;99.90;;;;;;5007560;28;20456;-82
2022/10/26 00:12:20;;;;;;;7.20;3.30;;;8.00;99.90;;;;;;4987697;28;20454;-81
2022/10/26 00:14:46;;;;;;;4.70;3.17;;;8.00;99.90;;;;;;4972037;28;20098;-81
2022/10/26 00:17:12;;;;;;;4.10;3.17;;;8.10;99.90;;;;;;4992732;28;20506;-81
2022/10/26 00:19:38;;;;;;;5.32;3.17;;;8.20;99.90;;;;;;4971466;28;20413;-81
2022/10/26 00:22:04;;;;;;;6.90;3.13;;;8.20;99.90;;;;;;4995724;28;20033;-81
2022/10/26 00:24:29;;;;;;;3.63;2.63;;;8.20;99.90;;;;;;4991819;28;20655;-81
2022/10/26 00:26:55;;;;;;;4.47;3.10;;;8.20;99.90;;;;;;4975272;28;20154;-81
2022/10/26 00:29:21;;;;;;;3.13;2.72;;;8.20;99.90;;;;;;4991591;28;20410;-81
2022/10/26 00:31:47;;;;;;;5.22;3.17;;;8.30;99.90;;;;;;4991389;28;20038;-81
2022/10/26 00:34:12;;;;;;;7.28;3.10;;;8.20;99.90;;;;;;5010125;28;20030;-81
2022/10/26 00:36:38;;;;;;;9.23;3.10;;;8.20;99.90;;;;;;4982648;28;20122;-81
2022/10/26 00:39:04;;;;;;;6.47;2.67;;;8.30;99.90;;;;;;4951087;28;20132;-81
2022/10/26 00:41:32;;;;;;;8.63;3.17;;;8.20;99.90;;;;;;4992419;28;20034;-81
2022/10/26 00:43:58;;;;;;;7.60;4.30;;;8.20;99.90;;;;;;4991173;28;20035;-81
2022/10/26 00:46:36;;;;;;;4.28;2.90;;;8.20;99.90;;;;;;4991105;28;20106;-81
2022/10/26 00:49:13;;;;;;;5.80;3.17;;;8.10;99.90;;;;;;4991136;28;20456;-81
2022/10/26 00:51:47;;;;;;;5.55;2.67;;;8.10;99.90;;;;;;4991272;28;20399;-81
2022/10/26 00:54:17;;;;;;;6.18;3.25;;;8.10;99.90;;;;;;4959899;28;20038;-81
2022/10/26 00:56:44;;;;;;;4.38;3.00;;;8.10;99.90;;;;;;4984456;28;20042;-81
2022/10/26 00:59:13;;;;;;;5.55;2.88;;;8.20;99.90;;;;;;4973160;28;20398;-81
2022/10/26 01:01:42;;;;;;;4.43;3.10;;;8.20;99.90;;;;;;5014592;28;20044;-81
2022/10/26 01:04:08;;;;;;;4.10;2.63;;;8.20;99.90;;;;;;5006685;28;20097;-81
2022/10/26 01:06:37;;;;;;;5.18;3.30;;;8.10;99.90;;;;;;4989274;28;20527;-81
2022/10/26 01:09:03;;;;;;;6.57;3.10;;;8.10;99.90;;;;;;4970824;28;20035;-82
2022/10/26 01:11:34;;;;;;;10.48;4.20;;;8.20;99.90;;;;;;4973449;28;20404;-81
2022/10/26 01:14:03;;;;;;;7.97;3.42;;;8.10;99.90;;;;;;4988089;28;20041;-81
2022/10/26 01:16:47;;;;;;;6.28;3.05;;;8.10;99.90;;;;;;4985107;28;20038;-81
2022/10/26 01:19:21;;;;;;;4.55;3.22;;;8.10;99.90;;;;;;5024527;28;20467;-82
2022/10/26 01:22:06;;;;;;;7.57;3.13;;;8.10;99.90;;;;;;4992250;28;20030;-81
2022/10/26 01:24:57;;;;;;;3.10;2.80;;;8.10;99.90;;;;;;4967686;28;20043;-81
2022/10/26 01:27:26;;;;;;;5.68;3.25;;;8.10;99.90;;;;;;4991099;28;20044;-81
2022/10/26 01:30:18;;;;;;;4.97;3.00;;;8.00;99.90;;;;;;5026366;28;20040;-80
2022/10/26 01:33:05;;;;;;;4.82;3.10;;;8.10;99.90;;;;;;5019210;28;20027;-81
2022/10/26 01:35:49;;;;;;;6.00;3.60;;;8.10;99.90;;;;;;5007505;28;20061;-81
2022/10/26 01:38:21;;;;;;;5.32;3.25;;;8.10;99.90;;;;;;4975212;28;20480;-81
2022/10/26 01:40:52;;;;;;;4.57;3.08;;;8.10;99.90;;;;;;4995732;28;20093;-81
2022/10/26 01:43:19;;;;;;;6.25;3.08;;;8.10;99.90;;;;;;5026494;28;20045;-81
2022/10/26 01:45:47;;;;;;;7.13;3.55;;;8.10;99.90;;;;;;4989141;28;20419;-82
2022/10/26 01:48:16;;;;;;;4.40;2.80;;;8.20;99.90;;;;;;4990642;28;20042;-81
2022/10/26 01:50:46;;;;;;;5.15;3.88;;;8.20;99.90;;;;;;5010659;28;20034;-81
2022/10/26 01:53:14;;;;;;;4.72;3.47;;;8.20;99.90;;;;;;5006575;28;20066;-81
2022/10/26 01:55:42;;;;;;;8.70;3.95;;;8.30;99.90;;;;;;4990070;28;20057;-82
2022/10/26 01:58:45;;;;;;;7.05;4.22;;;8.40;99.90;;;;;;5005999;28;20399;-82
2022/10/26 02:01:31;;;;;;;5.75;3.58;;;8.40;99.90;;;;;;4996515;28;20073;-81
2022/10/26 02:04:16;;;;;;;8.48;3.80;;;8.50;99.90;;;;;;4986728;28;20031;-81
2022/10/26 02:06:57;;;;;;;6.97;3.78;;;8.50;99.90;;;;;;4973673;28;20027;-82
2022/10/26 02:09:44;;;;;;;6.43;4.10;;;8.50;99.90;;;;;;4995041;28;20085;-81
2022/10/26 02:12:20;;;;;;;9.07;4.10;;;8.60;99.90;;;;;;4993318;28;20034;-81
2022/10/26 02:14:48;;;;;;;6.65;4.22;;;8.70;99.90;;;;;;4989959;28;20034;-81
2022/10/26 02:17:44;;;;;;;8.30;4.55;;;8.70;99.90;;;;;;5006675;28;20034;-81
2022/10/26 02:20:20;;;;;;;6.05;4.15;;;8.80;99.90;;;;;;4989457;28;20038;-80
2022/10/26 02:22:49;;;;;;;9.23;4.03;;;8.80;99.90;;;;;;4983575;28;20087;-81
2022/10/26 02:25:21;;;;;;;8.18;3.80;;;8.90;99.90;;;;;;4988301;28;20026;-81
2022/10/26 02:27:53;;;;;;;8.40;4.65;;;8.90;99.90;;;;;;4989808;28;20030;-81
2022/10/26 02:30:19;;;;;;;6.55;3.88;;;9.00;99.90;;;;;;5005502;28;20402;-81
2022/10/26 02:32:49;;;;;;;5.68;3.97;;;9.00;99.90;;;;;;4991278;28;20038;-81
2022/10/26 02:35:18;;;;;;;7.15;4.00;;;9.00;99.90;;;;;;4989794;28;20052;-81
2022/10/26 02:37:46;;;;;;;11.27;4.40;;;9.00;99.90;;;;;;4998838;28;20031;-81
2022/10/26 02:40:15;;;;;;;6.68;3.90;;;9.00;99.90;;;;;;4973491;28;20034;-81
2022/10/26 02:42:44;;;;;;;8.15;4.32;;;9.00;99.90;;;;;;5009934;28;20049;-81
2022/10/26 02:45:15;;;;;;;10.18;4.15;;;9.00;99.90;;;;;;4992629;28;20117;-80
2022/10/26 02:47:41;;;;;;;5.28;3.90;;;9.00;99.90;;;;;;4970071;28;20086;-81
2022/10/26 02:50:07;;;;;;;7.45;3.85;;;9.00;99.90;;;;;;4970977;28;20093;-81
2022/10/26 02:52:53;;;;;;;6.30;3.80;;;9.10;99.90;;;;;;4990751;28;20026;-81
2022/10/26 02:55:32;;;;;;;7.38;3.55;;;9.00;99.90;;;;;;4991504;28;20034;-81
2022/10/26 02:58:03;;;;;;;6.22;3.60;;;9.10;99.90;;;;;;5016270;28;20034;-81
2022/10/26 03:00:30;;;;;;;5.22;3.20;;;9.10;99.90;;;;;;4973645;28;20113;-82
2022/10/26 03:02:58;;;;;;;5.28;3.20;;;9.10;99.90;;;;;;4990355;28;20026;-82
2022/10/26 03:05:29;;;;;;;4.70;3.33;;;9.10;99.90;;;;;;4988826;28;20030;-81
2022/10/26 03:07:55;;;;;;;5.53;3.50;;;9.10;99.90;;;;;;4988787;28;20046;-81
2022/10/26 03:10:21;;;;;;;6.80;3.38;;;9.10;99.90;;;;;;4972816;28;20104;-81
2022/10/26 03:12:48;;;;;;;8.48;3.00;;;9.10;99.90;;;;;;4969782;28;20050;-82
2022/10/26 03:15:14;;;;;;;4.90;2.38;;;9.10;99.90;;;;;;4989007;28;20038;-81
2022/10/26 03:17:40;;;;;;;8.82;2.78;;;9.00;99.90;;;;;;5008026;28;20490;-81
2022/10/26 03:20:07;;;;;;;3.35;2.67;;;9.00;99.90;;;;;;4973164;28;20038;-82
2022/10/26 03:22:33;;;;;;;5.88;2.80;;;9.00;99.90;;;;;;5000087;28;20041;-81
2022/10/26 03:24:59;;;;;;;6.07;2.90;;;8.90;99.90;;;;;;4971556;28;20034;-82
2022/10/26 03:27:25;;;;;;;6.15;3.20;;;8.90;99.90;;;;;;4978735;28;20105;-82
2022/10/26 03:29:52;;;;;;;6.47;2.80;;;8.80;99.90;;;;;;4988108;28;20096;-82
2022/10/26 03:32:19;;;;;;;5.03;2.63;;;8.80;99.90;;;;;;4989440;28;20022;-82
2022/10/26 03:34:44;;;;;;;3.75;3.00;;;8.80;99.90;;;;;;5007655;28;20475;-82
2022/10/26 03:37:10;;;;;;;4.07;3.20;;;8.80;99.90;;;;;;5011455;28;20133;-82
2022/10/26 03:39:36;;;;;;;4.40;3.25;;;8.90;99.90;;;;;;5002639;28;20113;-82
2022/10/26 03:42:02;;;;;;;5.65;3.35;;;8.90;99.90;;;;;;4976675;28;20034;-82
2022/10/26 03:44:28;;;;;;;4.68;3.55;;;8.90;99.90;;;;;;4975139;28;20046;-82
2022/10/26 03:46:54;;;;;;;5.18;2.95;;;8.90;99.90;;;;;;4971521;28;20027;-82
2022/10/26 03:49:19;;;;;;;6.05;3.90;;;8.90;99.90;;;;;;4976481;28;20105;-82
2022/10/26 03:51:45;;;;;;;6.20;3.22;;;8.90;99.90;;;;;;4977912;28;20125;-83
2022/10/26 03:54:11;;;;;;;3.78;2.97;;;9.00;99.90;;;;;;4974702;28;20043;-81
2022/10/26 03:56:37;;;;;;;6.70;3.40;;;9.00;99.90;;;;;;4978023;28;20042;-82
2022/10/26 03:59:03;;;;;;;8.18;4.03;;;9.00;99.90;;;;;;4978071;28;20127;-82
2022/10/26 04:01:30;;;;;;;6.38;3.90;;;9.00;99.90;;;;;;4989004;28;20082;-83
2022/10/26 04:03:56;;;;;;;6.70;4.07;;;9.10;99.90;;;;;;4997479;28;20442;-81
2022/10/26 04:06:21;;;;;;;7.55;3.33;;;9.20;99.90;;;;;;4988025;28;20061;-82
2022/10/26 04:08:47;;;;;;;5.18;3.28;;;9.20;99.90;;;;;;4994325;28;20494;-82
2022/10/26 04:11:13;;;;;;;5.55;3.03;;;9.20;99.90;;;;;;4997541;28;20061;-82
2022/10/26 04:13:38;;;;;;;7.05;2.88;;;9.20;99.90;;;;;;4977559;28;20077;-83
2022/10/26 04:16:04;;;;;;;6.20;3.50;;;9.20;99.90;;;;;;4996931;28;20570;-81
2022/10/26 04:18:30;;;;;;;7.68;3.83;;;9.20;99.90;;;;;;4994227;28;20062;-82
2022/10/26 04:21:00;;;;;;;4.07;2.97;;;9.20;99.90;;;;;;4979234;28;20066;-82
2022/10/26 04:23:26;;;;;;;7.68;4.80;;;9.20;99.90;;;;;;5010287;28;20072;-82
2022/10/26 04:25:52;;;;;;;6.88;4.07;;;9.20;99.90;;;;;;4995276;28;20053;-82
2022/10/26 04:28:17;;;;;;;6.63;4.22;;;9.30;99.90;;;;;;4975460;28;20458;-81
2022/10/26 04:30:43;;;;;;;4.72;3.45;;;9.30;99.90;;;;;;4980435;28;20497;-81
2022/10/26 04:33:09;;;;;;;6.93;4.60;;;9.30;99.90;;;;;;4978487;28;20030;-82
2022/10/26 04:35:34;;;;;;;7.57;4.63;;;9.30;99.90;;;;;;4981570;28;20117;-82
2022/10/26 04:38:03;;;;;;;49.50;18.45;;;9.40;99.90;;;;;;4960138;28;20426;-81
2022/10/26 04:40:30;;;;;;;53.53;24.52;;;9.40;99.90;;;;;;4995684;28;20030;-81
2022/10/26 04:42:56;;;;;;;70.28;34.45;;;9.40;99.90;;;;;;4996828;28;20514;-81
2022/10/26 04:45:22;;;;;;;56.35;27.08;;;9.40;99.90;;;;;;5005846;28;20030;-82
2022/10/26 04:48:16;;;;;;;8.45;5.13;;;9.50;99.90;;;;;;5010204;28;20042;-82
2022/10/26 04:50:42;;;;;;;6.60;4.55;;;9.60;99.90;;;;;;4993918;28;20034;-82
2022/10/26 04:53:08;;;;;;;6.90;4.25;;;9.70;99.90;;;;;;4993713;28;20193;-82
2022/10/26 04:55:35;;;;;;;7.85;4.25;;;9.70;99.90;;;;;;4976872;28;20037;-83
2022/10/26 04:58:01;;;;;;;25.35;12.90;;;9.70;99.90;;;;;;4969773;28;20139;-81
2022/10/26 05:00:28;;;;;;;10.55;5.47;;;9.70;99.90;;;;;;4992727;28;20038;-82
2022/10/26 05:02:59;;;;;;;8.10;5.65;;;9.80;99.90;;;;;;4992115;28;20388;-81
2022/10/26 05:05:25;;;;;;;10.45;4.82;;;9.80;99.90;;;;;;4978961;28;20162;-81
2022/10/26 05:07:55;;;;;;;7.07;4.78;;;9.80;99.90;;;;;;4974955;28;20511;-82
2022/10/26 05:10:21;;;;;;;5.32;4.20;;;9.80;99.90;;;;;;4989929;28;20030;-81
2022/10/26 05:12:55;;;;;;;7.38;2.90;;;9.80;99.90;;;;;;5006947;28;20062;-82
2022/10/26 05:15:21;;;;;;;5.57;2.28;;;9.80;99.90;;;;;;4992002;28;20129;-81
2022/10/26 05:17:53;;;;;;;5.95;2.42;;;9.70;99.90;;;;;;5009817;28;20038;-82
2022/10/26 05:20:19;;;;;;;3.28;2.50;;;9.60;99.90;;;;;;4974214;28;20034;-82
2022/10/26 05:22:52;;;;;;;6.53;3.25;;;9.60;99.90;;;;;;4990476;28;20030;-82
2022/10/26 05:25:17;;;;;;;7.43;4.20;;;9.50;99.90;;;;;;4990410;28;20133;-81
2022/10/26 05:27:43;;;;;;;6.22;3.97;;;9.50;99.90;;;;;;4974428;28;20133;-81
2022/10/26 05:30:09;;;;;;;11.48;6.93;;;9.50;99.90;;;;;;4990269;28;20085;-81
2022/10/26 05:32:35;;;;;;;17.17;11.55;;;9.60;99.90;;;;;;5006578;28;20125;-81
2022/10/26 05:35:01;;;;;;;10.85;7.93;;;9.70;99.90;;;;;;4973975;28;20105;-81
2022/10/26 05:37:30;;;;;;;12.90;9.18;;;9.60;99.90;;;;;;4974084;28;20060;-81
2022/10/26 05:39:56;;;;;;;12.20;8.30;;;9.70;99.90;;;;;;4989948;28;20030;-81
2022/10/26 05:42:22;;;;;;;10.85;8.10;;;9.60;99.90;;;;;;4992886;28;20038;-81
2022/10/26 05:44:47;;;;;;;10.05;7.53;;;9.60;99.90;;;;;;4989843;28;20026;-81
2022/10/26 05:47:13;;;;;;;9.18;5.70;;;9.60;99.90;;;;;;4974032;28;20037;-81
2022/10/26 05:49:39;;;;;;;8.20;5.88;;;9.60;99.90;;;;;;4974217;28;20046;-81
2022/10/26 05:52:04;;;;;;;9.65;5.45;;;9.70;99.90;;;;;;4988955;28;20056;-81
2022/10/26 05:54:30;;;;;;;7.07;5.38;;;9.70;99.90;;;;;;4992544;28;20562;-81
2022/10/26 05:56:56;;;;;;;8.70;5.38;;;9.70;99.90;;;;;;4975241;28;20092;-82
2022/10/26 05:59:22;;;;;;;7.03;5.75;;;9.70;99.90;;;;;;4970250;28;20034;-80
2022/10/26 06:02:20;;;;;;;7.75;6.38;;;9.70;99.90;;;;;;4991231;28;20392;-81
2022/10/26 06:04:47;;;;;;;9.50;6.63;;;9.70;99.90;;;;;;4970380;28;20035;-81
2022/10/26 06:07:15;;;;;;;12.18;6.38;;;9.80;99.90;;;;;;4970709;28;20503;-82
2022/10/26 06:09:42;;;;;;;8.18;6.63;;;9.80;99.90;;;;;;4970329;28;20039;-81
2022/10/26 06:12:10;;;;;;;8.00;5.47;;;9.80;99.90;;;;;;4955324;28;20046;-81
2022/10/26 06:14:36;;;;;;;5.57;4.85;;;9.80;99.90;;;;;;4989171;28;20038;-81
2022/10/26 06:17:16;;;;;;;10.32;5.28;;;9.80;99.90;;;;;;4957607;28;20100;-81
2022/10/26 06:20:12;;;;;;;8.10;5.65;;;9.80;99.90;;;;;;4986428;28;20039;-81
2022/10/26 06:22:47;;;;;;;9.57;5.90;;;9.80;99.90;;;;;;4969732;28;20462;-81
2022/10/26 06:25:19;;;;;;;8.77;6.07;;;9.90;99.90;;;;;;4986628;28;20061;-82
2022/10/26 06:27:57;;;;;;;7.07;5.05;;;9.80;99.90;;;;;;4995147;28;20097;-81
2022/10/26 06:30:22;;;;;;;10.88;4.60;;;9.80;99.90;;;;;;4974644;28;20031;-82
2022/10/26 06:32:52;;;;;;;6.32;5.20;;;9.80;99.90;;;;;;5006186;28;20122;-81
2022/10/26 06:35:41;;;;;;;9.45;5.57;;;9.90;99.90;;;;;;4990827;28;20037;-82
2022/10/26 06:38:20;;;;;;;8.50;4.93;;;9.90;99.90;;;;;;5012280;28;20447;-81
2022/10/26 06:40:50;;;;;;;6.50;5.13;;;9.90;99.90;;;;;;4989419;28;20027;-81
2022/10/26 06:43:34;;;;;;;7.90;4.90;;;9.90;99.90;;;;;;4988427;28;20034;-82
2022/10/26 06:46:20;;;;;;;6.20;4.80;;;9.90;99.90;;;;;;4987991;28;20030;-82
2022/10/26 06:49:05;;;;;;;7.47;5.57;;;10.00;99.90;;;;;;5005409;28;20184;-82
2022/10/26 06:51:37;;;;;;;8.82;5.03;;;10.00;99.90;;;;;;4989936;28;20034;-81
2022/10/26 06:54:14;;;;;;;6.18;4.38;;;10.00;99.90;;;;;;4974264;28;20137;-80
2022/10/26 06:56:40;;;;;;;8.38;4.70;;;10.00;99.90;;;;;;4988777;28;20026;-82
2022/10/26 06:59:12;;;;;;;6.65;4.80;;;10.00;99.90;;;;;;4972442;28;20174;-82
2022/10/26 07:01:37;;;;;;;11.38;6.60;;;10.00;99.90;;;;;;5004868;28;20062;-81
2022/10/26 07:04:03;;;;;;;5.45;4.65;;;10.10;99.90;;;;;;4988456;28;20136;-82
2022/10/26 07:06:29;;;;;;;10.95;4.95;;;10.10;99.90;;;;;;4992798;28;20031;-81
2022/10/26 07:08:55;;;;;;;9.95;4.88;;;10.10;99.90;;;;;;4972135;28;20129;-81
2022/10/26 07:11:21;;;;;;;6.68;4.55;;;10.20;99.90;;;;;;4972467;28;20121;-80
2022/10/26 07:13:48;;;;;;;8.32;4.90;;;10.20;99.90;;;;;;4987032;28;20061;-81
2022/10/26 07:16:14;;;;;;;7.25;4.25;;;10.20;99.90;;;;;;4993424;28;20034;-80
2022/10/26 07:18:40;;;;;;;9.45;7.03;;;10.20;99.90;;;;;;4973055;28;20126;-81
2022/10/26 07:21:06;;;;;;;8.02;4.65;;;10.20;99.90;;;;;;4990347;28;20751;-81
2022/10/26 07:23:32;;;;;;;7.43;4.60;;;10.20;99.90;;;;;;4989316;28;20026;-81
2022/10/26 07:26:00;;;;;;;7.57;4.68;;;10.30;99.90;;;;;;4995785;28;20434;-81
2022/10/26 07:28:26;;;;;;;5.75;4.70;;;10.30;99.90;;;;;;5004484;28;20039;-80
2022/10/26 07:30:52;;;;;;;5.22;4.45;;;10.30;99.90;;;;;;4991698;28;20545;-81
2022/10/26 07:33:18;;;;;;;8.85;4.85;;;10.30;99.90;;;;;;4981163;28;20041;-82
2022/10/26 07:35:44;;;;;;;8.63;5.30;;;10.30;99.90;;;;;;4976686;28;20034;-81
2022/10/26 07:38:12;;;;;;;8.85;5.22;;;10.30;99.90;;;;;;4964975;28;20096;-81
2022/10/26 07:40:38;;;;;;;6.72;5.05;;;10.30;99.90;;;;;;4989372;28;20026;-81
2022/10/26 07:43:04;;;;;;;7.85;5.10;;;10.40;99.90;;;;;;4972476;28;20034;-81
2022/10/26 07:45:30;;;;;;;8.50;4.55;;;10.40;99.90;;;;;;4988694;28;20029;-81
2022/10/26 07:47:56;;;;;;;5.88;4.38;;;10.50;99.90;;;;;;4968245;28;20042;-81
2022/10/26 07:50:23;;;;;;;7.03;4.70;;;10.50;99.90;;;;;;4970895;28;20043;-81
2022/10/26 07:52:48;;;;;;;8.15;4.45;;;10.50;99.90;;;;;;5004592;28;20038;-81
2022/10/26 07:55:14;;;;;;;7.03;4.53;;;10.50;99.90;;;;;;4971997;28;20050;-81
2022/10/26 07:57:40;;;;;;;5.57;5.00;;;10.60;99.90;;;;;;4988626;28;20155;-80
2022/10/26 08:00:08;;;;;;;7.35;4.95;;;10.70;99.90;;;;;;4968266;28;20070;-81
2022/10/26 08:02:34;;;;;;;8.35;4.93;;;10.70;99.90;;;;;;4955705;28;20034;-80
2022/10/26 08:05:00;;;;;;;6.10;4.82;;;10.70;99.90;;;;;;4985771;28;20034;-81
2022/10/26 08:07:27;;;;;;;9.38;5.53;;;10.70;99.90;;;;;;4991101;28;20081;-82
2022/10/26 08:09:53;;;;;;;7.97;4.95;;;10.70;99.90;;;;;;4985786;28;20035;-80
2022/10/26 08:12:19;;;;;;;11.13;5.47;;;10.80;99.90;;;;;;4991358;28;20454;-81
2022/10/26 08:14:44;;;;;;;7.55;5.03;;;10.70;99.90;;;;;;4989418;28;20575;-81
2022/10/26 08:17:11;;;;;;;6.40;4.72;;;10.80;99.90;;;;;;4978280;28;20042;-81
2022/10/26 08:19:37;;;;;;;7.35;5.55;;;10.70;99.90;;;;;;4969643;28;20129;-81
2022/10/26 08:22:02;;;;;;;8.05;6.10;;;10.80;99.90;;;;;;5003566;28;20482;-80
2022/10/26 08:24:29;;;;;;;6.80;4.85;;;10.80;99.90;;;;;;4986446;28;20093;-82
2022/10/26 08:26:55;;;;;;;5.60;4.93;;;10.80;99.90;;;;;;5006793;28;20033;-81
2022/10/26 08:29:20;;;;;;;6.57;4.63;;;10.80;99.90;;;;;;4995483;28;20032;-81
2022/10/26 08:31:47;;;;;;;5.35;4.53;;;10.80;99.90;;;;;;4992912;28;20043;-81
2022/10/26 08:34:13;;;;;;;7.35;5.03;;;10.80;99.90;;;;;;5008348;28;20026;-81
2022/10/26 08:36:39;;;;;;;7.32;5.28;;;10.90;99.90;;;;;;4989169;28;20546;-80
2022/10/26 08:39:05;;;;;;;8.27;5.15;;;10.90;99.90;;;;;;4956524;28;20034;-82
2022/10/26 08:41:43;;;;;;;6.65;4.78;;;10.80;99.90;;;;;;4970890;28;20505;-81
2022/10/26 08:44:35;;;;;;;9.70;5.53;;;10.80;99.90;;;;;;4972806;28;20495;-81
2022/10/26 08:47:16;;;;;;;8.68;4.65;;;10.80;99.90;;;;;;4989552;28;20121;-80
2022/10/26 08:49:56;;;;;;;7.78;5.25;;;10.90;99.90;;;;;;4990431;28;20042;-81
2022/10/26 08:52:30;;;;;;;6.50;5.10;;;10.80;99.90;;;;;;4991753;28;20030;-81
2022/10/26 08:54:59;;;;;;;7.22;5.10;;;10.80;99.90;;;;;;4993043;28;20483;-80
2022/10/26 08:57:30;;;;;;;7.32;5.20;;;10.90;99.90;;;;;;4989459;28;20519;-81
2022/10/26 09:00:04;;;;;;;6.22;5.50;;;10.90;99.90;;;;;;4989181;28;20034;-80
2022/10/26 09:02:31;;;;;;;8.15;5.47;;;10.90;99.90;;;;;;4989264;28;20571;-81
2022/10/26 09:04:58;;;;;;;10.88;5.93;;;10.90;99.90;;;;;;4991306;28;20053;-80
2022/10/26 09:07:52;;;;;;;7.55;5.70;;;11.00;99.90;;;;;;4991791;28;20073;-80
2022/10/26 09:10:26;;;;;;;8.27;5.70;;;11.10;99.90;;;;;;4992753;28;20080;-80
2022/10/26 09:13:02;;;;;;;8.30;5.30;;;11.10;99.90;;;;;;5014642;28;20034;-80
2022/10/26 09:16:01;;;;;;;8.80;6.22;;;11.20;99.90;;;;;;4991249;28;20034;-81
2022/10/26 09:18:46;;;;;;;8.73;6.18;;;11.20;99.90;;;;;;4974545;28;20511;-81
2022/10/26 09:21:18;;;;;;;7.87;5.70;;;11.30;99.90;;;;;;5007464;28;20042;-81
2022/10/26 09:23:46;;;;;;;7.78;5.97;;;11.40;99.90;;;;;;4992365;28;20281;-81
2022/10/26 09:26:18;;;;;;;10.00;5.70;;;11.50;99.90;;;;;;4996622;28;20037;-81
2022/10/26 09:28:45;;;;;;;10.23;8.55;;;11.50;99.90;;;;;;5007375;28;20491;-81
2022/10/26 09:31:15;;;;;;;8.30;7.40;;;11.60;99.90;;;;;;4995844;28;20031;-81
2022/10/26 09:33:41;;;;;;;14.15;6.70;;;11.70;99.90;;;;;;4982344;28;20411;-81
2022/10/26 09:36:16;;;;;;;11.20;8.00;;;11.80;99.90;;;;;;4998626;28;20054;-81
2022/10/26 09:39:00;;;;;;;7.72;5.78;;;11.90;99.90;;;;;;4976140;28;20050;-80
2022/10/26 09:41:37;;;;;;;9.45;6.88;;;12.00;99.90;;;;;;4984209;28;20030;-82
2022/10/26 09:44:28;;;;;;;5.70;5.10;;;12.20;99.90;;;;;;4989033;28;20026;-81
2022/10/26 09:47:19;;;;;;;6.97;5.32;;;12.40;99.90;;;;;;4992270;28;20046;-80
2022/10/26 09:49:49;;;;;;;8.60;5.80;;;12.50;99.90;;;;;;4991801;28;20038;-81
2022/10/26 09:52:16;;;;;;;6.43;5.13;;;12.60;99.90;;;;;;4991441;28;20034;-81
2022/10/26 09:54:42;;;;;;;7.57;5.43;;;12.70;99.90;;;;;;4992563;28;20041;-81
2022/10/26 09:57:11;;;;;;;8.35;4.82;;;12.80;99.90;;;;;;4974844;28;20058;-81
2022/10/26 09:59:40;;;;;;;8.52;5.45;;;13.00;99.90;;;;;;4991167;28;20625;-81
2022/10/26 10:02:34;;;;;;;7.35;5.50;;;13.00;99.90;;;;;;4987630;28;20043;-80
2022/10/26 10:05:01;;;;;;;7.25;5.15;;;13.10;99.90;;;;;;4971465;28;20023;-80
2022/10/26 10:07:27;;;;;;;9.45;5.28;;;13.20;99.90;;;;;;4987274;28;20514;-81
2022/10/26 10:10:08;;;;;;;7.85;5.07;;;13.30;99.90;;;;;;4986839;28;20542;-81
2022/10/26 10:12:34;;;;;;;6.47;5.13;;;13.40;99.90;;;;;;5011297;28;20034;-80
2022/10/26 10:15:00;;;;;;;6.72;5.10;;;13.50;99.90;;;;;;5000238;28;20349;-81
2022/10/26 10:17:26;;;;;;;5.60;5.00;;;13.60;99.90;;;;;;5005059;28;20041;-81
2022/10/26 10:19:52;;;;;;;9.88;6.50;;;13.80;99.90;;;;;;4974448;28;20078;-80
2022/10/26 10:22:23;;;;;;;5.70;4.70;;;14.00;99.90;;;;;;4996217;28;20038;-80
2022/10/26 10:25:21;;;;;;;8.55;4.88;;;14.10;99.90;;;;;;4991450;28;20031;-82
2022/10/26 10:27:53;;;;;;;7.60;4.88;;;14.20;99.90;;;;;;4984994;28;20073;-81
2022/10/26 10:30:22;;;;;;;8.55;6.88;;;14.20;99.90;;;;;;4989731;28;20030;-80
2022/10/26 10:33:08;;;;;;;5.28;4.75;;;14.20;99.90;;;;;;5007848;28;20436;-82
2022/10/26 10:35:34;;;;;;;7.15;4.88;;;14.30;99.90;;;;;;4990610;28;20069;-81
2022/10/26 10:38:00;;;;;;;6.28;4.35;;;14.40;99.90;;;;;;4961063;28;20030;-81
2022/10/26 10:40:30;;;;;;;4.82;3.75;;;14.40;99.90;;;;;;5006183;28;20507;-81
2022/10/26 10:43:13;;;;;;;6.90;4.00;;;14.50;99.90;;;;;;4956581;28;20034;-81
2022/10/26 10:45:39;;;;;;;5.25;3.75;;;14.60;99.90;;;;;;4977505;28;20029;-81
2022/10/26 10:48:11;;;;;;;5.15;3.30;;;14.70;99.90;;;;;;4996036;28;20046;-81
2022/10/26 10:50:48;;;;;;;4.15;3.20;;;14.90;99.90;;;;;;4989832;28;20022;-81
2022/10/26 10:53:18;;;;;;;6.78;2.75;;;14.90;99.90;;;;;;4996543;28;20049;-81
2022/10/26 10:55:57;;;;;;;4.05;3.05;;;15.10;99.90;;;;;;4987200;28;20065;-81
2022/10/26 10:58:32;;;;;;;3.92;2.20;;;15.20;99.90;;;;;;4985467;28;20534;-81
2022/10/26 11:00:57;;;;;;;2.77;1.80;;;15.40;99.90;;;;;;4994039;28;20435;-82
2022/10/26 11:03:52;;;;;;;2.78;1.63;;;15.50;99.90;;;;;;4942020;28;20034;-81
2022/10/26 11:06:22;;;;;;;3.45;1.80;;;15.60;99.90;;;;;;4991442;28;20506;-81
2022/10/26 11:08:54;;;;;;;5.03;2.28;;;15.50;99.90;;;;;;4971016;28;20042;-82
2022/10/26 11:11:27;;;;;;;7.32;2.03;;;15.50;99.90;;;;;;4992584;28;20049;-82
2022/10/26 11:14:22;;;;;;;3.63;1.60;;;15.50;99.90;;;;;;5008397;28;20573;-82
2022/10/26 11:17:15;;;;;;;2.97;1.52;;;15.50;99.90;;;;;;4953483;28;20110;-81
2022/10/26 11:19:52;;;;;;;2.88;1.30;;;15.40;99.90;;;;;;4990223;28;20035;-81
2022/10/26 11:22:24;;;;;;;2.10;1.33;;;15.30;99.90;;;;;;4991291;28;20037;-83
2022/10/26 11:25:19;;;;;;;4.32;1.70;;;15.30;99.90;;;;;;4995822;28;20084;-81
2022/10/26 11:28:11;;;;;;;2.85;1.90;;;15.40;99.90;;;;;;5014825;28;20100;-82
2022/10/26 11:30:44;;;;;;;2.88;1.40;;;15.50;99.90;;;;;;4941621;28;20026;-82
2022/10/26 11:33:25;;;;;;;3.58;1.42;;;15.70;99.90;;;;;;4996728;28;20027;-82
2022/10/26 11:35:58;;;;;;;4.53;1.20;;;15.80;99.90;;;;;;4987600;28;20023;-81
2022/10/26 11:38:47;;;;;;;4.28;1.40;;;15.90;99.90;;;;;;4998482;28;20053;-81
2022/10/26 11:41:23;;;;;;;3.40;1.30;;;16.10;99.90;;;;;;5021026;28;20031;-82
2022/10/26 11:43:53;;;;;;;4.30;1.33;;;16.20;99.90;;;;;;5008998;28;20026;-82
2022/10/26 11:46:35;;;;;;;3.17;1.80;;;16.40;99.90;;;;;;5003251;28;20405;-81
2022/10/26 11:49:25;;;;;;;2.40;1.98;;;16.50;99.90;;;;;;4982199;28;20041;-81
2022/10/26 11:51:59;;;;;;;2.75;1.70;;;16.50;99.90;;;;;;4992048;28;20038;-81
2022/10/26 11:54:29;;;;;;;2.97;2.38;;;16.60;99.90;;;;;;5000869;28;20041;-82
2022/10/26 11:56:57;;;;;;;6.45;2.10;;;16.50;99.90;;;;;;5002261;28;20041;-81
2022/10/26 11:59:34;;;;;;;3.63;1.67;;;16.60;99.90;;;;;;4959985;28;20132;-82
2022/10/26 12:02:13;;;;;;;2.90;1.88;;;16.60;99.90;;;;;;4996220;28;20030;-81
2022/10/26 12:04:40;;;;;;;2.45;1.70;;;16.60;99.90;;;;;;4994809;28;20031;-81
2022/10/26 12:07:22;;;;;;;4.82;1.95;;;16.60;99.90;;;;;;4993891;28;20034;-81
2022/10/26 12:09:48;;;;;;;2.47;1.70;;;16.50;99.90;;;;;;5001285;28;20034;-82
2022/10/26 12:12:36;;;;;;;4.22;1.80;;;16.60;99.90;;;;;;4994934;28;20034;-81
2022/10/26 12:15:28;;;;;;;2.28;1.17;;;16.70;99.90;;;;;;5009450;28;20035;-82
2022/10/26 12:17:57;;;;;;;2.83;1.30;;;16.70;99.90;;;;;;5010211;28;20034;-82
2022/10/26 12:20:42;;;;;;;2.65;1.65;;;16.70;99.90;;;;;;4994078;28;20034;-81
2022/10/26 12:23:10;;;;;;;1.50;1.40;;;16.80;99.90;;;;;;4990877;28;20049;-81
2022/10/26 12:25:35;;;;;;;1.40;1.23;;;16.80;99.90;;;;;;4994917;28;20050;-82
2022/10/26 12:28:01;;;;;;;2.03;1.45;;;16.80;99.90;;;;;;5000411;28;20030;-81
2022/10/26 12:30:33;;;;;;;3.67;1.30;;;16.80;99.90;;;;;;4991396;28;20034;-80
2022/10/26 12:33:28;;;;;;;3.75;1.38;;;16.80;99.90;;;;;;4999746;28;20058;-82
2022/10/26 12:35:54;;;;;;;6.57;1.52;;;16.70;99.90;;;;;;4994860;28;20044;-80
2022/10/26 12:38:20;;;;;;;2.03;1.15;;;16.70;99.90;;;;;;4995966;28;20035;-80
2022/10/26 12:40:47;;;;;;;2.38;1.15;;;16.80;99.90;;;;;;5009444;28;20393;-81
2022/10/26 12:43:13;;;;;;;3.13;1.15;;;16.90;99.90;;;;;;4989843;28;20549;-80
2022/10/26 12:45:43;;;;;;;1.90;1.10;;;17.00;99.90;;;;;;4992276;28;20023;-80
2022/10/26 12:48:25;;;;;;;2.50;1.20;;;17.10;99.90;;;;;;4989187;28;20070;-80
2022/10/26 12:50:51;;;;;;;4.15;1.45;;;17.30;99.90;;;;;;4982200;28;20510;-80
2022/10/26 12:53:20;;;;;;;3.65;1.15;;;17.30;99.90;;;;;;4992672;28;20080;-80
2022/10/26 12:55:49;;;;;;;3.63;1.10;;;17.50;99.90;;;;;;4992419;28;20030;-80
2022/10/26 12:58:50;;;;;;;2.35;1.05;;;17.40;99.90;;;;;;4993201;28;20034;-80
2022/10/26 13:01:46;;;;;;;5.75;1.13;;;17.40;99.90;;;;;;5001621;28;20029;-80
2022/10/26 13:04:37;;;;;;;5.88;1.00;;;17.40;99.90;;;;;;4988602;28;20097;-82
2022/10/26 13:07:19;;;;;;;6.57;1.67;;;17.20;99.90;;;;;;5004223;28;20502;-81
2022/10/26 13:09:58;;;;;;;3.22;1.30;;;17.20;99.90;;;;;;4990612;28;20491;-80
2022/10/26 13:12:25;;;;;;;3.63;1.13;;;17.20;99.90;;;;;;5001525;28;20034;-80